sensor_id;sensor_type;location;lat;lon;timestamp;temperature;humidity
34646;DHT22;20857;47.808;12.482;2023-01-13T00:02:11;4.00;99.90
34646;DHT22;20857;47.808;12.482;2023-01-13T00:04:37;4.00;99.90
34646;DHT22;20857;47.808;12.482;2023-01-13T00:07:02;3.90;99.90
34646;DHT22;20857;47.808;12.482;2023-01-13T00:09:28;4.00;99.90
34646;DHT22;20857;47.808;12.482;2023-01-13T00:11:53;3.90;99.90
34646;DHT22;20857;47.808;12.482;2023-01-13T00:14:20;4.00;99.90
34646;DHT22;20857;47.808;12.482;2023-01-13T00:16:46;4.00;99.90
34646;DHT22;20857;47.808;12.482;2023-01-13T00:19:11;4.00;99.90
34646;DHT22;20857;47.808;12.482;2023-01-13T00:21:37;4.00;99.90
34646;DHT22;20857;47.808;12.482;2023-01-13T00:24:02;3.90;99.90
34646;DHT22;20857;47.808;12.482;2023-01-13T00:26:28;3.90;99.90
34646;DHT22;20857;47.808;12.482;2023-01-13T00:29:00;3.90;99.90
34646;DHT22;20857;47.808;12.482;2023-01-13T00:31:26;4.00;99.90
34646;DHT22;20857;47.808;12.482;2023-01-13T00:33:51;3.90;99.90
34646;DHT22;20857;47.808;12.482;2023-01-13T00:36:18;3.90;99.90
34646;DHT22;20857;47.808;12.482;2023-01-13T00:38:44;3.90;99.90
34646;DHT22;20857;47.808;12.482;2023-01-13T00:41:10;3.90;99.90
34646;DHT22;20857;47.808;12.482;2023-01-13T00:43:36;3.90;99.90
34646;DHT22;20857;47.808;12.482;2023-01-13T00:46:02;3.90;99.90
34646;DHT22;20857;47.808;12.482;2023-01-13T00:48:28;3.80;99.90
34646;DHT22;20857;47.808;12.482;2023-01-13T00:50:55;3.90;99.90
34646;DHT22;20857;47.808;12.482;2023-01-13T00:53:21;3.80;99.90
34646;DHT22;20857;47.808;12.482;2023-01-13T00:55:46;3.90;99.90
34646;DHT22;20857;47.808;12.482;2023-01-13T00:58:12;3.90;99.90
34646;DHT22;20857;47.808;12.482;2023-01-13T01:00:37;3.90;99.90
34646;DHT22;20857;47.808;12.482;2023-01-13T01:03:03;3.80;99.90
34646;DHT22;20857;47.808;12.482;2023-01-13T01:05:33;3.80;99.90
34646;DHT22;20857;47.808;12.482;2023-01-13T01:07:58;3.80;99.90
34646;DHT22;20857;47.808;12.482;2023-01-13T01:10:24;3.90;99.90
34646;DHT22;20857;47.808;12.482;2023-01-13T01:12:49;3.90;99.90
34646;DHT22;20857;47.808;12.482;2023-01-13T01:15:15;3.90;99.90
34646;DHT22;20857;47.808;12.482;2023-01-13T01:17:41;4.00;99.90
34646;DHT22;20857;47.808;12.482;2023-01-13T01:20:06;4.10;99.90
34646;DHT22;20857;47.808;12.482;2023-01-13T01:22:32;4.10;99.90
34646;DHT22;20857;47.808;12.482;2023-01-13T01:24:57;4.00;99.90
34646;DHT22;20857;47.808;12.482;2023-01-13T01:27:23;4.00;99.90
34646;DHT22;20857;47.808;12.482;2023-01-13T01:29:49;4.00;99.90
34646;DHT22;20857;47.808;12.482;2023-01-13T01:32:14;3.90;99.90
34646;DHT22;20857;47.808;12.482;2023-01-13T01:34:40;3.90;99.90
34646;DHT22;20857;47.808;12.482;2023-01-13T01:37:05;3.90;99.90
34646;DHT22;20857;47.808;12.482;2023-01-13T01:39:31;3.80;99.90
34646;DHT22;20857;47.808;12.482;2023-01-13T01:41:56;3.90;99.90
34646;DHT22;20857;47.808;12.482;2023-01-13T01:47:07;4.00;99.90
34646;DHT22;20857;47.808;12.482;2023-01-13T01:49:33;4.00;99.90
34646;DHT22;20857;47.808;12.482;2023-01-13T01:54:34;4.00;99.90
34646;DHT22;20857;47.808;12.482;2023-01-13T01:57:02;3.90;99.90
34646;DHT22;20857;47.808;12.482;2023-01-13T01:59:28;3.90;99.90
34646;DHT22;20857;47.808;12.482;2023-01-13T02:01:55;3.90;99.90
34646;DHT22;20857;47.808;12.482;2023-01-13T02:04:28;3.80;99.90
34646;DHT22;20857;47.808;12.482;2023-01-13T02:06:54;3.80;99.90
34646;DHT22;20857;47.808;12.482;2023-01-13T02:09:21;3.80;99.90
34646;DHT22;20857;47.808;12.482;2023-01-13T02:11:47;3.80;99.90
34646;DHT22;20857;47.808;12.482;2023-01-13T02:14:31;3.90;99.90
34646;DHT22;20857;47.808;12.482;2023-01-13T02:19:52;4.10;99.90
34646;DHT22;20857;47.808;12.482;2023-01-13T02:22:21;4.10;99.90
34646;DHT22;20857;47.808;12.482;2023-01-13T02:29:51;4.10;99.90
34646;DHT22;20857;47.808;12.482;2023-01-13T02:35:16;4.10;99.90
34646;DHT22;20857;47.808;12.482;2023-01-13T02:37:44;4.10;99.90
34646;DHT22;20857;47.808;12.482;2023-01-13T02:42:39;4.10;99.90
34646;DHT22;20857;47.808;12.482;2023-01-13T02:45:27;4.10;99.90
34646;DHT22;20857;47.808;12.482;2023-01-13T02:47:54;4.20;99.90
34646;DHT22;20857;47.808;12.482;2023-01-13T02:50:21;4.10;99.90
34646;DHT22;20857;47.808;12.482;2023-01-13T02:52:56;5.90;99.90
34646;DHT22;20857;47.808;12.482;2023-01-13T02:55:28;4.20;99.90
34646;DHT22;20857;47.808;12.482;2023-01-13T02:57:55;4.20;99.90
34646;DHT22;20857;47.808;12.482;2023-01-13T03:00:23;4.20;99.90
34646;DHT22;20857;47.808;12.482;2023-01-13T03:02:50;4.20;99.90
34646;DHT22;20857;47.808;12.482;2023-01-13T03:05:16;4.30;99.90
34646;DHT22;20857;47.808;12.482;2023-01-13T03:18:18;4.40;99.90
34646;DHT22;20857;47.808;12.482;2023-01-13T03:24:02;4.50;99.90
34646;DHT22;20857;47.808;12.482;2023-01-13T03:28:58;4.70;99.90
34646;DHT22;20857;47.808;12.482;2023-01-13T03:31:28;4.70;99.90
34646;DHT22;20857;47.808;12.482;2023-01-13T03:33:55;4.70;99.90
34646;DHT22;20857;47.808;12.482;2023-01-13T03:36:23;4.70;99.90
34646;DHT22;20857;47.808;12.482;2023-01-13T03:38:55;4.70;99.90
34646;DHT22;20857;47.808;12.482;2023-01-13T03:41:35;4.70;99.90
34646;DHT22;20857;47.808;12.482;2023-01-13T03:44:03;4.80;99.90
34646;DHT22;20857;47.808;12.482;2023-01-13T03:49:55;4.90;99.90
34646;DHT22;20857;47.808;12.482;2023-01-13T03:52:21;4.90;99.90
34646;DHT22;20857;47.808;12.482;2023-01-13T03:54:50;6.20;99.90
34646;DHT22;20857;47.808;12.482;2023-01-13T03:57:18;4.90;99.90
34646;DHT22;20857;47.808;12.482;2023-01-13T03:59:46;5.00;99.90
34646;DHT22;20857;47.808;12.482;2023-01-13T04:02:13;5.00;99.90
34646;DHT22;20857;47.808;12.482;2023-01-13T04:04:47;5.10;99.90
34646;DHT22;20857;47.808;12.482;2023-01-13T04:07:21;5.10;99.90
34646;DHT22;20857;47.808;12.482;2023-01-13T04:09:51;5.10;99.90
34646;DHT22;20857;47.808;12.482;2023-01-13T04:12:28;5.10;99.90
34646;DHT22;20857;47.808;12.482;2023-01-13T04:15:14;5.10;99.90
34646;DHT22;20857;47.808;12.482;2023-01-13T04:17:40;7.70;99.90
34646;DHT22;20857;47.808;12.482;2023-01-13T04:20:06;5.10;99.90
34646;DHT22;20857;47.808;12.482;2023-01-13T04:22:31;5.10;99.90
34646;DHT22;20857;47.808;12.482;2023-01-13T04:24:58;5.10;99.90
34646;DHT22;20857;47.808;12.482;2023-01-13T04:27:23;5.10;99.90
34646;DHT22;20857;47.808;12.482;2023-01-13T04:29:49;5.10;99.90
34646;DHT22;20857;47.808;12.482;2023-01-13T04:32:14;5.10;99.90
34646;DHT22;20857;47.808;12.482;2023-01-13T04:34:42;5.20;99.90
34646;DHT22;20857;47.808;12.482;2023-01-13T04:37:08;5.20;99.90
34646;DHT22;20857;47.808;12.482;2023-01-13T04:39:33;5.30;99.90
34646;DHT22;20857;47.808;12.482;2023-01-13T04:41:58;5.30;99.90
34646;DHT22;20857;47.808;12.482;2023-01-13T04:44:25;5.20;99.90
34646;DHT22;20857;47.808;12.482;2023-01-13T04:46:51;5.30;99.90
34646;DHT22;20857;47.808;12.482;2023-01-13T04:49:17;5.30;99.90
34646;DHT22;20857;47.808;12.482;2023-01-13T04:51:42;5.20;99.90
34646;DHT22;20857;47.808;12.482;2023-01-13T04:54:08;5.30;99.90
34646;DHT22;20857;47.808;12.482;2023-01-13T04:56:34;5.30;99.90
34646;DHT22;20857;47.808;12.482;2023-01-13T04:58:59;6.40;99.90
34646;DHT22;20857;47.808;12.482;2023-01-13T05:01:25;5.40;99.90
34646;DHT22;20857;47.808;12.482;2023-01-13T05:03:50;5.40;99.90
34646;DHT22;20857;47.808;12.482;2023-01-13T05:06:16;5.40;99.90
34646;DHT22;20857;47.808;12.482;2023-01-13T05:08:41;7.80;99.90
34646;DHT22;20857;47.808;12.482;2023-01-13T05:11:07;5.60;99.90
34646;DHT22;20857;47.808;12.482;2023-01-13T05:13:52;5.60;99.90
34646;DHT22;20857;47.808;12.482;2023-01-13T05:16:36;5.50;99.90
34646;DHT22;20857;47.808;12.482;2023-01-13T05:19:20;5.50;99.90
34646;DHT22;20857;47.808;12.482;2023-01-13T05:21:46;5.40;99.90
34646;DHT22;20857;47.808;12.482;2023-01-13T05:24:30;5.40;99.90
34646;DHT22;20857;47.808;12.482;2023-01-13T05:27:14;5.40;99.90
34646;DHT22;20857;47.808;12.482;2023-01-13T05:29:40;5.30;99.90
34646;DHT22;20857;47.808;12.482;2023-01-13T05:32:05;5.30;99.90
34646;DHT22;20857;47.808;12.482;2023-01-13T05:34:32;5.40;99.90
34646;DHT22;20857;47.808;12.482;2023-01-13T05:36:58;5.50;99.90
34646;DHT22;20857;47.808;12.482;2023-01-13T05:39:23;5.50;99.90
34646;DHT22;20857;47.808;12.482;2023-01-13T05:41:49;5.60;99.90
34646;DHT22;20857;47.808;12.482;2023-01-13T05:44:53;5.50;99.90
34646;DHT22;20857;47.808;12.482;2023-01-13T05:47:18;5.40;99.90
34646;DHT22;20857;47.808;12.482;2023-01-13T05:49:43;5.60;99.90
34646;DHT22;20857;47.808;12.482;2023-01-13T05:52:09;5.50;99.90
34646;DHT22;20857;47.808;12.482;2023-01-13T05:54:34;5.50;99.90
34646;DHT22;20857;47.808;12.482;2023-01-13T05:57:00;5.40;99.90
34646;DHT22;20857;47.808;12.482;2023-01-13T05:59:25;5.40;99.90
34646;DHT22;20857;47.808;12.482;2023-01-13T06:01:51;5.30;99.90
34646;DHT22;20857;47.808;12.482;2023-01-13T06:04:16;5.30;99.90
34646;DHT22;20857;47.808;12.482;2023-01-13T06:06:42;5.40;99.90
34646;DHT22;20857;47.808;12.482;2023-01-13T06:09:08;7.20;99.90
34646;DHT22;20857;47.808;12.482;2023-01-13T06:11:34;5.50;99.90
34646;DHT22;20857;47.808;12.482;2023-01-13T06:13:59;5.50;99.90
34646;DHT22;20857;47.808;12.482;2023-01-13T06:16:25;5.40;99.90
34646;DHT22;20857;47.808;12.482;2023-01-13T06:18:50;5.30;99.90
34646;DHT22;20857;47.808;12.482;2023-01-13T06:21:16;5.30;99.90
34646;DHT22;20857;47.808;12.482;2023-01-13T06:23:41;5.20;99.90
34646;DHT22;20857;47.808;12.482;2023-01-13T06:26:09;5.30;99.90
34646;DHT22;20857;47.808;12.482;2023-01-13T06:28:36;5.30;99.90
34646;DHT22;20857;47.808;12.482;2023-01-13T06:31:02;5.40;99.90
34646;DHT22;20857;47.808;12.482;2023-01-13T06:33:30;5.50;99.90
34646;DHT22;20857;47.808;12.482;2023-01-13T06:35:58;5.50;99.90
34646;DHT22;20857;47.808;12.482;2023-01-13T06:38:24;5.50;99.90
34646;DHT22;20857;47.808;12.482;2023-01-13T06:40:51;5.50;99.90
34646;DHT22;20857;47.808;12.482;2023-01-13T06:43:17;7.20;99.90
34646;DHT22;20857;47.808;12.482;2023-01-13T06:45:47;5.40;99.90
34646;DHT22;20857;47.808;12.482;2023-01-13T06:48:13;5.40;99.90
34646;DHT22;20857;47.808;12.482;2023-01-13T06:50:39;5.40;99.90
34646;DHT22;20857;47.808;12.482;2023-01-13T06:53:06;5.40;99.90
34646;DHT22;20857;47.808;12.482;2023-01-13T06:55:32;5.50;99.90
34646;DHT22;20857;47.808;12.482;2023-01-13T06:57:57;5.50;99.90
34646;DHT22;20857;47.808;12.482;2023-01-13T07:00:23;5.50;99.90
34646;DHT22;20857;47.808;12.482;2023-01-13T07:02:49;5.40;99.90
34646;DHT22;20857;47.808;12.482;2023-01-13T07:05:15;5.40;99.90
34646;DHT22;20857;47.808;12.482;2023-01-13T07:07:41;8.20;99.90
34646;DHT22;20857;47.808;12.482;2023-01-13T07:10:07;5.50;99.90
34646;DHT22;20857;47.808;12.482;2023-01-13T07:12:37;5.50;99.90
34646;DHT22;20857;47.808;12.482;2023-01-13T07:15:21;5.70;99.90
34646;DHT22;20857;47.808;12.482;2023-01-13T07:17:46;5.70;99.90
34646;DHT22;20857;47.808;12.482;2023-01-13T07:20:12;5.70;99.90
34646;DHT22;20857;47.808;12.482;2023-01-13T07:22:37;5.80;99.90
34646;DHT22;20857;47.808;12.482;2023-01-13T07:25:03;5.60;99.90
34646;DHT22;20857;47.808;12.482;2023-01-13T07:27:28;5.70;99.90
34646;DHT22;20857;47.808;12.482;2023-01-13T07:29:54;5.70;99.90
34646;DHT22;20857;47.808;12.482;2023-01-13T07:32:19;5.70;99.90
34646;DHT22;20857;47.808;12.482;2023-01-13T07:34:45;5.80;99.90
34646;DHT22;20857;47.808;12.482;2023-01-13T07:37:10;5.70;99.90
34646;DHT22;20857;47.808;12.482;2023-01-13T07:39:36;5.90;99.90
34646;DHT22;20857;47.808;12.482;2023-01-13T07:42:01;5.90;99.90
34646;DHT22;20857;47.808;12.482;2023-01-13T07:44:45;5.90;99.90
34646;DHT22;20857;47.808;12.482;2023-01-13T07:47:11;5.90;99.90
34646;DHT22;20857;47.808;12.482;2023-01-13T07:49:36;5.90;99.90
34646;DHT22;20857;47.808;12.482;2023-01-13T07:52:02;5.90;99.90
34646;DHT22;20857;47.808;12.482;2023-01-13T07:54:27;5.90;99.90
34646;DHT22;20857;47.808;12.482;2023-01-13T07:56:54;6.00;99.90
34646;DHT22;20857;47.808;12.482;2023-01-13T07:59:20;6.00;99.90
34646;DHT22;20857;47.808;12.482;2023-01-13T08:01:45;6.00;99.90
34646;DHT22;20857;47.808;12.482;2023-01-13T08:04:11;6.20;99.90
34646;DHT22;20857;47.808;12.482;2023-01-13T08:06:38;6.30;99.90
34646;DHT22;20857;47.808;12.482;2023-01-13T08:09:03;6.20;99.90
34646;DHT22;20857;47.808;12.482;2023-01-13T08:11:29;6.30;99.90
34646;DHT22;20857;47.808;12.482;2023-01-13T08:13:55;6.30;99.90
34646;DHT22;20857;47.808;12.482;2023-01-13T08:16:21;6.20;99.90
34646;DHT22;20857;47.808;12.482;2023-01-13T08:18:46;6.10;99.90
34646;DHT22;20857;47.808;12.482;2023-01-13T08:21:12;6.00;99.90
34646;DHT22;20857;47.808;12.482;2023-01-13T08:23:39;9.70;99.90
34646;DHT22;20857;47.808;12.482;2023-01-13T08:26:09;5.80;99.90
34646;DHT22;20857;47.808;12.482;2023-01-13T08:28:35;5.80;99.90
34646;DHT22;20857;47.808;12.482;2023-01-13T08:31:01;5.80;99.90
34646;DHT22;20857;47.808;12.482;2023-01-13T08:33:27;5.80;99.90
34646;DHT22;20857;47.808;12.482;2023-01-13T08:35:53;5.90;99.90
34646;DHT22;20857;47.808;12.482;2023-01-13T08:38:19;8.20;99.90
34646;DHT22;20857;47.808;12.482;2023-01-13T08:40:45;5.90;99.90
34646;DHT22;20857;47.808;12.482;2023-01-13T08:43:10;6.00;99.90
34646;DHT22;20857;47.808;12.482;2023-01-13T08:45:36;6.10;99.90
34646;DHT22;20857;47.808;12.482;2023-01-13T08:48:01;6.10;99.90
34646;DHT22;20857;47.808;12.482;2023-01-13T08:50:27;6.20;99.90
34646;DHT22;20857;47.808;12.482;2023-01-13T08:52:52;6.20;99.90
34646;DHT22;20857;47.808;12.482;2023-01-13T08:55:18;9.10;99.90
34646;DHT22;20857;47.808;12.482;2023-01-13T08:57:44;6.50;99.90
34646;DHT22;20857;47.808;12.482;2023-01-13T09:00:09;6.60;99.90
34646;DHT22;20857;47.808;12.482;2023-01-13T09:02:35;6.60;99.90
34646;DHT22;20857;47.808;12.482;2023-01-13T09:05:03;6.70;99.90
34646;DHT22;20857;47.808;12.482;2023-01-13T09:07:31;6.90;99.90
34646;DHT22;20857;47.808;12.482;2023-01-13T09:09:57;6.90;99.90
34646;DHT22;20857;47.808;12.482;2023-01-13T09:12:23;7.20;99.90
34646;DHT22;20857;47.808;12.482;2023-01-13T09:15:07;11.10;99.90
34646;DHT22;20857;47.808;12.482;2023-01-13T09:17:32;7.70;99.90
34646;DHT22;20857;47.808;12.482;2023-01-13T09:19:58;7.80;99.90
34646;DHT22;20857;47.808;12.482;2023-01-13T09:22:23;7.80;99.90
34646;DHT22;20857;47.808;12.482;2023-01-13T09:24:52;8.00;99.90
34646;DHT22;20857;47.808;12.482;2023-01-13T09:27:18;8.00;99.90
34646;DHT22;20857;47.808;12.482;2023-01-13T09:29:44;8.10;99.90
34646;DHT22;20857;47.808;12.482;2023-01-13T09:32:11;8.10;99.90
34646;DHT22;20857;47.808;12.482;2023-01-13T09:34:36;8.10;99.90
34646;DHT22;20857;47.808;12.482;2023-01-13T09:37:21;10.30;99.90
34646;DHT22;20857;47.808;12.482;2023-01-13T09:39:46;8.20;99.90
34646;DHT22;20857;47.808;12.482;2023-01-13T09:42:18;8.20;99.90
34646;DHT22;20857;47.808;12.482;2023-01-13T09:45:07;8.30;99.90
34646;DHT22;20857;47.808;12.482;2023-01-13T09:50:14;8.40;99.90
34646;DHT22;20857;47.808;12.482;2023-01-13T09:52:42;8.30;99.90
34646;DHT22;20857;47.808;12.482;2023-01-13T09:57:36;8.10;99.90
34646;DHT22;20857;47.808;12.482;2023-01-13T10:00:03;8.00;99.90
34646;DHT22;20857;47.808;12.482;2023-01-13T10:07:49;7.60;99.90
34646;DHT22;20857;47.808;12.482;2023-01-13T10:10:17;9.60;99.90
34646;DHT22;20857;47.808;12.482;2023-01-13T10:12:44;7.60;99.90
34646;DHT22;20857;47.808;12.482;2023-01-13T10:15:28;7.60;99.90
34646;DHT22;20857;47.808;12.482;2023-01-13T10:20:31;7.70;99.90
34646;DHT22;20857;47.808;12.482;2023-01-13T10:25:45;7.60;99.90
34646;DHT22;20857;47.808;12.482;2023-01-13T10:28:14;7.70;99.90
34646;DHT22;20857;47.808;12.482;2023-01-13T10:30:43;7.70;99.90
34646;DHT22;20857;47.808;12.482;2023-01-13T10:38:15;7.90;99.90
34646;DHT22;20857;47.808;12.482;2023-01-13T10:40:48;8.00;99.90
34646;DHT22;20857;47.808;12.482;2023-01-13T10:43:13;8.10;99.90
34646;DHT22;20857;47.808;12.482;2023-01-13T10:45:39;8.10;99.90
34646;DHT22;20857;47.808;12.482;2023-01-13T10:48:06;8.20;99.90
34646;DHT22;20857;47.808;12.482;2023-01-13T10:50:34;8.20;99.90
34646;DHT22;20857;47.808;12.482;2023-01-13T10:53:01;11.10;99.90
34646;DHT22;20857;47.808;12.482;2023-01-13T10:57:53;9.00;99.90
34646;DHT22;20857;47.808;12.482;2023-01-13T11:00:28;8.00;99.90
34646;DHT22;20857;47.808;12.482;2023-01-13T11:05:38;8.00;99.90
34646;DHT22;20857;47.808;12.482;2023-01-13T11:08:04;10.90;99.90
34646;DHT22;20857;47.808;12.482;2023-01-13T11:10:30;7.90;99.90
34646;DHT22;20857;47.808;12.482;2023-01-13T11:15:42;8.00;99.90
34646;DHT22;20857;47.808;12.482;2023-01-13T11:20:52;8.30;99.90
34646;DHT22;20857;47.808;12.482;2023-01-13T11:25:47;9.80;99.90
34646;DHT22;20857;47.808;12.482;2023-01-13T11:31:04;9.20;99.90
34646;DHT22;20857;47.808;12.482;2023-01-13T11:33:38;9.50;99.90
34646;DHT22;20857;47.808;12.482;2023-01-13T11:38:57;10.10;99.90
34646;DHT22;20857;47.808;12.482;2023-01-13T11:44:16;10.30;99.90
34646;DHT22;20857;47.808;12.482;2023-01-13T11:46:43;10.50;99.90
34646;DHT22;20857;47.808;12.482;2023-01-13T11:49:11;10.70;99.90
34646;DHT22;20857;47.808;12.482;2023-01-13T11:51:42;10.90;99.90
34646;DHT22;20857;47.808;12.482;2023-01-13T11:54:31;10.70;99.90
34646;DHT22;20857;47.808;12.482;2023-01-13T12:04:48;10.30;99.90
34646;DHT22;20857;47.808;12.482;2023-01-13T12:07:16;12.50;99.90
34646;DHT22;20857;47.808;12.482;2023-01-13T12:09:52;10.80;99.90
34646;DHT22;20857;47.808;12.482;2023-01-13T12:12:31;10.40;99.90
34646;DHT22;20857;47.808;12.482;2023-01-13T12:15:06;10.30;99.90
34646;DHT22;20857;47.808;12.482;2023-01-13T12:18:10;10.30;99.90
34646;DHT22;20857;47.808;12.482;2023-01-13T12:22:52;10.30;99.90
34646;DHT22;20857;47.808;12.482;2023-01-13T12:25:22;10.40;99.90
34646;DHT22;20857;47.808;12.482;2023-01-13T12:28:12;12.80;99.90
34646;DHT22;20857;47.808;12.482;2023-01-13T12:30:44;13.10;99.90
34646;DHT22;20857;47.808;12.482;2023-01-13T12:36:00;11.10;99.90
34646;DHT22;20857;47.808;12.482;2023-01-13T12:41:15;11.40;99.90
34646;DHT22;20857;47.808;12.482;2023-01-13T12:43:46;10.30;99.90
34646;DHT22;20857;47.808;12.482;2023-01-13T12:49:03;9.90;99.90
34646;DHT22;20857;47.808;12.482;2023-01-13T12:51:30;9.90;99.90
34646;DHT22;20857;47.808;12.482;2023-01-13T12:53:58;11.50;99.90
34646;DHT22;20857;47.808;12.482;2023-01-13T12:56:26;11.10;99.90
34646;DHT22;20857;47.808;12.482;2023-01-13T13:01:37;9.80;99.90
34646;DHT22;20857;47.808;12.482;2023-01-13T13:04:07;10.70;99.90
34646;DHT22;20857;47.808;12.482;2023-01-13T13:06:33;9.80;99.90
34646;DHT22;20857;47.808;12.482;2023-01-13T13:11:58;10.00;99.90
34646;DHT22;20857;47.808;12.482;2023-01-13T13:15:02;11.00;99.90
34646;DHT22;20857;47.808;12.482;2023-01-13T13:19:54;11.20;99.90
34646;DHT22;20857;47.808;12.482;2023-01-13T13:22:42;10.50;99.90
34646;DHT22;20857;47.808;12.482;2023-01-13T13:25:21;12.50;99.90
34646;DHT22;20857;47.808;12.482;2023-01-13T13:27:49;10.60;99.90
34646;DHT22;20857;47.808;12.482;2023-01-13T13:30:27;12.20;99.90
34646;DHT22;20857;47.808;12.482;2023-01-13T13:35:30;10.50;99.90
34646;DHT22;20857;47.808;12.482;2023-01-13T13:40:46;10.50;99.90
34646;DHT22;20857;47.808;12.482;2023-01-13T13:43:36;10.60;99.90
34646;DHT22;20857;47.808;12.482;2023-01-13T13:46:27;10.40;99.90
34646;DHT22;20857;47.808;12.482;2023-01-13T13:49:32;10.30;99.90
34646;DHT22;20857;47.808;12.482;2023-01-13T13:51:59;10.10;99.90
34646;DHT22;20857;47.808;12.482;2023-01-13T13:54:25;10.60;99.90
34646;DHT22;20857;47.808;12.482;2023-01-13T13:59:58;9.30;99.90
34646;DHT22;20857;47.808;12.482;2023-01-13T14:02:31;9.10;99.90
34646;DHT22;20857;47.808;12.482;2023-01-13T14:05:15;9.00;99.90
34646;DHT22;20857;47.808;12.482;2023-01-13T14:07:42;8.80;99.90
34646;DHT22;20857;47.808;12.482;2023-01-13T14:10:11;8.60;99.90
34646;DHT22;20857;47.808;12.482;2023-01-13T14:12:38;8.30;99.90
34646;DHT22;20857;47.808;12.482;2023-01-13T14:15:04;8.30;99.90
34646;DHT22;20857;47.808;12.482;2023-01-13T14:17:30;8.00;99.90
34646;DHT22;20857;47.808;12.482;2023-01-13T14:20:00;7.90;99.90
34646;DHT22;20857;47.808;12.482;2023-01-13T14:22:27;7.80;99.90
34646;DHT22;20857;47.808;12.482;2023-01-13T14:24:53;7.80;99.90
34646;DHT22;20857;47.808;12.482;2023-01-13T14:27:25;7.80;99.90
34646;DHT22;20857;47.808;12.482;2023-01-13T14:29:52;7.70;99.90
34646;DHT22;20857;47.808;12.482;2023-01-13T14:32:19;7.60;99.90
34646;DHT22;20857;47.808;12.482;2023-01-13T14:34:45;7.50;99.90
34646;DHT22;20857;47.808;12.482;2023-01-13T14:37:23;7.30;99.90
34646;DHT22;20857;47.808;12.482;2023-01-13T14:39:49;7.30;99.90
34646;DHT22;20857;47.808;12.482;2023-01-13T14:42:15;7.20;99.90
34646;DHT22;20857;47.808;12.482;2023-01-13T14:44:43;7.40;99.90
34646;DHT22;20857;47.808;12.482;2023-01-13T14:47:25;7.90;99.90
34646;DHT22;20857;47.808;12.482;2023-01-13T14:49:56;8.00;99.90
34646;DHT22;20857;47.808;12.482;2023-01-13T14:52:27;7.50;99.90
34646;DHT22;20857;47.808;12.482;2023-01-13T14:59:54;6.90;99.90
34646;DHT22;20857;47.808;12.482;2023-01-13T15:04:53;6.90;99.90
34646;DHT22;20857;47.808;12.482;2023-01-13T15:07:27;7.10;99.90
34646;DHT22;20857;47.808;12.482;2023-01-13T15:09:53;7.20;99.90
34646;DHT22;20857;47.808;12.482;2023-01-13T15:12:41;7.30;99.90
34646;DHT22;20857;47.808;12.482;2023-01-13T15:15:19;7.40;99.90
34646;DHT22;20857;47.808;12.482;2023-01-13T15:17:45;7.40;99.90
34646;DHT22;20857;47.808;12.482;2023-01-13T15:20:18;7.40;99.90
34646;DHT22;20857;47.808;12.482;2023-01-13T15:22:44;7.50;99.90
34646;DHT22;20857;47.808;12.482;2023-01-13T15:25:10;7.50;99.90
34646;DHT22;20857;47.808;12.482;2023-01-13T15:27:37;7.40;99.90
34646;DHT22;20857;47.808;12.482;2023-01-13T15:30:11;7.60;99.90
34646;DHT22;20857;47.808;12.482;2023-01-13T15:32:37;7.70;99.90
34646;DHT22;20857;47.808;12.482;2023-01-13T15:35:06;7.70;99.90
34646;DHT22;20857;47.808;12.482;2023-01-13T15:37:32;7.70;99.90
34646;DHT22;20857;47.808;12.482;2023-01-13T15:39:58;7.60;99.90
34646;DHT22;20857;47.808;12.482;2023-01-13T15:42:27;7.80;99.90
34646;DHT22;20857;47.808;12.482;2023-01-13T15:45:14;7.30;99.90
34646;DHT22;20857;47.808;12.482;2023-01-13T15:47:58;6.60;99.90
34646;DHT22;20857;47.808;12.482;2023-01-13T15:50:26;6.50;99.90
34646;DHT22;20857;47.808;12.482;2023-01-13T15:52:55;5.90;99.90
34646;DHT22;20857;47.808;12.482;2023-01-13T15:55:20;5.70;99.90
34646;DHT22;20857;47.808;12.482;2023-01-13T15:57:48;5.60;99.90
34646;DHT22;20857;47.808;12.482;2023-01-13T16:00:15;5.50;99.90
34646;DHT22;20857;47.808;12.482;2023-01-13T16:02:41;5.40;99.90
34646;DHT22;20857;47.808;12.482;2023-01-13T16:05:08;5.40;99.90
34646;DHT22;20857;47.808;12.482;2023-01-13T16:07:34;5.60;99.90
34646;DHT22;20857;47.808;12.482;2023-01-13T16:10:00;5.20;99.90
34646;DHT22;20857;47.808;12.482;2023-01-13T16:12:28;6.20;99.90
34646;DHT22;20857;47.808;12.482;2023-01-13T16:14:53;5.20;99.90
34646;DHT22;20857;47.808;12.482;2023-01-13T16:17:20;5.10;99.90
34646;DHT22;20857;47.808;12.482;2023-01-13T16:19:46;5.10;99.90
34646;DHT22;20857;47.808;12.482;2023-01-13T16:22:12;5.10;99.90
34646;DHT22;20857;47.808;12.482;2023-01-13T16:24:38;5.10;99.90
34646;DHT22;20857;47.808;12.482;2023-01-13T16:27:09;6.60;99.90
34646;DHT22;20857;47.808;12.482;2023-01-13T16:29:35;4.90;99.90
34646;DHT22;20857;47.808;12.482;2023-01-13T16:32:01;5.00;99.90
34646;DHT22;20857;47.808;12.482;2023-01-13T16:34:26;5.00;99.90
34646;DHT22;20857;47.808;12.482;2023-01-13T16:36:52;5.00;99.90
34646;DHT22;20857;47.808;12.482;2023-01-13T16:39:21;5.10;99.90
34646;DHT22;20857;47.808;12.482;2023-01-13T16:41:46;5.10;99.90
34646;DHT22;20857;47.808;12.482;2023-01-13T16:44:12;6.70;99.90
34646;DHT22;20857;47.808;12.482;2023-01-13T16:46:47;5.20;99.90
34646;DHT22;20857;47.808;12.482;2023-01-13T16:49:55;5.20;99.90
34646;DHT22;20857;47.808;12.482;2023-01-13T16:52:20;5.30;99.90
34646;DHT22;20857;47.808;12.482;2023-01-13T16:54:46;5.40;99.90
34646;DHT22;20857;47.808;12.482;2023-01-13T16:57:13;5.40;99.90
34646;DHT22;20857;47.808;12.482;2023-01-13T16:59:38;5.40;99.90
34646;DHT22;20857;47.808;12.482;2023-01-13T17:02:04;5.40;99.90
34646;DHT22;20857;47.808;12.482;2023-01-13T17:04:29;5.30;99.90
34646;DHT22;20857;47.808;12.482;2023-01-13T17:06:59;5.40;99.90
34646;DHT22;20857;47.808;12.482;2023-01-13T17:09:26;5.50;99.90
34646;DHT22;20857;47.808;12.482;2023-01-13T17:11:52;5.40;99.90
34646;DHT22;20857;47.808;12.482;2023-01-13T17:14:18;6.00;99.90
34646;DHT22;20857;47.808;12.482;2023-01-13T17:16:47;5.30;99.90
34646;DHT22;20857;47.808;12.482;2023-01-13T17:19:13;5.30;99.90
34646;DHT22;20857;47.808;12.482;2023-01-13T17:21:38;5.30;99.90
34646;DHT22;20857;47.808;12.482;2023-01-13T17:24:04;5.20;99.90
34646;DHT22;20857;47.808;12.482;2023-01-13T17:26:33;5.10;99.90
34646;DHT22;20857;47.808;12.482;2023-01-13T17:29:05;5.10;99.90
34646;DHT22;20857;47.808;12.482;2023-01-13T17:31:31;4.90;99.90
34646;DHT22;20857;47.808;12.482;2023-01-13T17:33:57;6.30;99.90
34646;DHT22;20857;47.808;12.482;2023-01-13T17:36:22;6.30;99.90
34646;DHT22;20857;47.808;12.482;2023-01-13T17:38:48;6.40;99.90
34646;DHT22;20857;47.808;12.482;2023-01-13T17:41:14;4.90;99.90
34646;DHT22;20857;47.808;12.482;2023-01-13T17:43:40;5.00;99.90